createdAt,value
2018-12-20T00:00:53.212Z,15.73
2018-12-20T00:03:20.415Z,26.57
2018-12-20T00:05:47.892Z,14.90
2018-12-20T00:08:15.190Z,15.70
2018-12-20T00:10:42.589Z,13.47
2018-12-20T00:13:09.858Z,12.87
2018-12-20T00:15:37.120Z,16.60
2018-12-20T00:18:04.439Z,17.37
2018-12-20T00:20:31.798Z,15.47
2018-12-20T00:22:59.160Z,15.87
2018-12-20T00:25:26.530Z,15.83
2018-12-20T00:27:53.818Z,14.50
2018-12-20T00:30:21.085Z,13.63
2018-12-20T00:32:48.289Z,11.30
2018-12-20T00:35:16.156Z,16.20
2018-12-20T00:37:43.511Z,16.70
2018-12-20T00:40:11.067Z,18.83
2018-12-20T00:42:38.481Z,18.20
2018-12-20T00:45:05.854Z,16.63
2018-12-20T00:47:33.276Z,17.47
2018-12-20T00:50:00.779Z,17.80
2018-12-20T00:52:28.100Z,17.00
2018-12-20T00:54:55.383Z,16.90
2018-12-20T00:57:22.661Z,16.67
2018-12-20T00:59:49.893Z,18.30
2018-12-20T01:02:17.122Z,17.07
2018-12-20T01:04:44.497Z,19.47
2018-12-20T01:07:12.212Z,14.50
2018-12-20T01:09:39.584Z,17.87
2018-12-20T01:12:06.911Z,15.00
2018-12-20T01:14:34.199Z,15.60
2018-12-20T01:17:01.524Z,14.50
2018-12-20T01:19:28.875Z,17.20
2018-12-20T01:21:56.366Z,18.37
2018-12-20T01:24:23.620Z,14.20
2018-12-20T01:26:50.934Z,17.40
2018-12-20T01:29:18.495Z,15.30
2018-12-20T01:31:45.929Z,14.10
2018-12-20T01:34:13.478Z,17.70
2018-12-20T01:36:40.929Z,15.80
2018-12-20T01:39:08.313Z,19.73
2018-12-20T01:41:35.590Z,16.27
2018-12-20T01:44:02.932Z,18.17
2018-12-20T01:46:30.293Z,16.20
2018-12-20T01:48:57.549Z,14.37
2018-12-20T01:51:24.981Z,24.87
2018-12-20T01:53:52.386Z,14.90
2018-12-20T01:56:19.725Z,16.33
2018-12-20T01:58:46.926Z,16.77
2018-12-20T02:01:14.303Z,16.30
2018-12-20T02:03:41.731Z,13.87
2018-12-20T02:06:09.037Z,16.53
2018-12-20T02:08:36.336Z,15.40
2018-12-20T02:11:03.647Z,14.60
2018-12-20T02:13:30.877Z,14.30
2018-12-20T02:15:58.396Z,14.33
2018-12-20T02:18:25.917Z,14.27
2018-12-20T02:20:53.343Z,16.20
2018-12-20T02:23:20.881Z,14.60
2018-12-20T02:25:48.398Z,16.90
2018-12-20T02:28:15.899Z,14.70
2018-12-20T02:30:43.491Z,15.50
2018-12-20T02:33:10.885Z,16.97
2018-12-20T02:35:38.128Z,23.13
2018-12-20T02:38:05.378Z,13.77
2018-12-20T02:40:32.763Z,14.50
2018-12-20T02:43:00.196Z,16.00
2018-12-20T02:45:27.670Z,13.87
2018-12-20T02:47:55.101Z,15.20
2018-12-20T02:50:22.513Z,19.53
2018-12-20T02:52:49.734Z,21.30
2018-12-20T02:55:17.059Z,16.40
2018-12-20T02:57:44.628Z,14.10
2018-12-20T03:00:12.002Z,21.83
2018-12-20T03:02:39.399Z,21.40
2018-12-20T03:05:06.773Z,21.23
2018-12-20T03:07:33.999Z,18.80
2018-12-20T03:10:01.315Z,18.27
2018-12-20T03:12:28.790Z,21.73
2018-12-20T03:14:56.244Z,20.93
2018-12-20T03:17:23.899Z,22.90
2018-12-20T03:19:51.188Z,25.80
2018-12-20T03:22:18.766Z,17.70
2018-12-20T03:24:46.105Z,22.33
2018-12-20T03:27:13.560Z,22.50
2018-12-20T03:29:40.836Z,24.90
2018-12-20T03:32:08.078Z,21.63
2018-12-20T03:34:35.429Z,23.30
2018-12-20T03:37:02.911Z,25.07
2018-12-20T03:39:30.243Z,23.53
2018-12-20T03:41:57.692Z,25.73
2018-12-20T03:44:25.009Z,25.07
2018-12-20T03:46:52.327Z,21.57
2018-12-20T03:49:19.667Z,24.07
2018-12-20T03:51:47.114Z,22.00
2018-12-20T03:54:14.481Z,25.20
2018-12-20T03:56:41.938Z,24.70
2018-12-20T03:59:09.397Z,24.73
2018-12-20T04:01:36.980Z,23.10
2018-12-20T04:04:04.556Z,26.90
2018-12-20T04:06:31.905Z,29.17
2018-12-20T04:08:59.231Z,28.93
2018-12-20T04:11:26.440Z,26.43
2018-12-20T04:13:53.678Z,27.70
2018-12-20T04:16:20.877Z,27.90
2018-12-20T04:18:48.242Z,26.60
2018-12-20T04:21:16.397Z,31.37
2018-12-20T04:23:43.817Z,24.00
2018-12-20T04:26:11.303Z,25.00
2018-12-20T04:28:38.604Z,29.63
2018-12-20T04:31:05.963Z,26.27
2018-12-20T04:33:33.313Z,23.60
2018-12-20T04:36:00.535Z,25.73
2018-12-20T04:38:28.166Z,24.50
2018-12-20T04:40:56.041Z,26.77
2018-12-20T04:43:23.497Z,24.17
2018-12-20T04:45:50.872Z,30.77
2018-12-20T04:48:18.064Z,26.40
2018-12-20T04:50:45.945Z,26.13
2018-12-20T04:53:13.319Z,25.77
2018-12-20T04:55:40.618Z,29.83
2018-12-20T04:58:08.249Z,27.63
2018-12-20T05:00:35.765Z,30.40
2018-12-20T05:03:03.208Z,24.07
2018-12-20T05:05:30.658Z,30.10
2018-12-20T05:07:58.117Z,22.33
2018-12-20T05:10:25.499Z,24.47
2018-12-20T05:12:52.817Z,26.33
2018-12-20T05:15:20.302Z,25.17
2018-12-20T05:17:47.986Z,28.47
2018-12-20T05:20:15.511Z,24.40
2018-12-20T05:22:42.786Z,22.00
2018-12-20T05:25:10.040Z,24.57
2018-12-20T05:27:37.250Z,27.30
2018-12-20T05:30:05.003Z,29.03
2018-12-20T05:32:32.639Z,23.83
2018-12-20T05:35:00.131Z,22.30
2018-12-20T05:37:27.672Z,26.73
2018-12-20T05:39:55.070Z,24.83
2018-12-20T05:42:22.643Z,26.73
2018-12-20T05:44:50.089Z,35.57
2018-12-20T05:47:17.560Z,23.87
2018-12-20T05:49:44.965Z,29.37
2018-12-20T05:52:12.827Z,23.47
2018-12-20T05:54:40.240Z,24.13
2018-12-20T05:57:07.638Z,26.37
2018-12-20T05:59:35.150Z,23.93
2018-12-20T06:02:02.474Z,29.37
2018-12-20T06:04:29.925Z,26.70
2018-12-20T06:06:57.530Z,30.60
2018-12-20T06:09:24.852Z,35.27
2018-12-20T06:11:52.425Z,30.43
2018-12-20T06:14:19.676Z,34.17
2018-12-20T06:16:47.148Z,25.70
2018-12-20T06:19:14.417Z,36.37
2018-12-20T06:21:42.098Z,29.83
2018-12-20T06:24:09.456Z,34.57
2018-12-20T06:26:36.685Z,25.10
2018-12-20T06:29:04.052Z,26.50
2018-12-20T06:31:31.293Z,29.40
2018-12-20T06:33:58.603Z,26.70
2018-12-20T06:36:26.049Z,29.13
2018-12-20T06:38:53.257Z,24.80
2018-12-20T06:41:20.497Z,24.70
2018-12-20T06:43:47.712Z,26.97
2018-12-20T06:46:21.167Z,26.10
2018-12-20T06:48:44.194Z,23.97
2018-12-20T06:51:11.428Z,32.83
2018-12-20T06:53:38.655Z,26.57
2018-12-20T06:56:05.940Z,24.20
2018-12-20T06:58:33.196Z,22.23
2018-12-20T07:01:00.410Z,21.40
2018-12-20T07:03:27.660Z,22.83
2018-12-20T07:05:54.890Z,24.90
2018-12-20T07:08:22.129Z,25.80
2018-12-20T07:10:49.362Z,24.30
2018-12-20T07:13:17.576Z,30.20
2018-12-20T07:15:44.787Z,28.57
2018-12-20T07:18:12.069Z,25.90
2018-12-20T07:20:39.428Z,26.37
2018-12-20T07:23:06.841Z,27.77
2018-12-20T07:25:34.132Z,23.63
2018-12-20T07:28:01.415Z,23.17
2018-12-20T07:30:28.624Z,24.23
2018-12-20T07:32:55.984Z,27.73
2018-12-20T07:35:23.206Z,24.57
2018-12-20T07:37:50.448Z,21.57
2018-12-20T07:40:17.779Z,24.80
2018-12-20T07:42:51.552Z,21.63
2018-12-20T07:45:19.486Z,21.53
2018-12-20T07:47:46.797Z,22.60
2018-12-20T07:50:14.104Z,20.33
2018-12-20T07:52:41.348Z,27.87
2018-12-20T07:55:08.560Z,22.90
2018-12-20T07:57:35.973Z,18.93
2018-12-20T08:00:04.083Z,26.83
2018-12-20T08:02:31.328Z,24.47
2018-12-20T08:04:58.573Z,18.20
2018-12-20T08:07:25.803Z,20.80
2018-12-20T08:09:53.032Z,24.20
2018-12-20T08:12:20.252Z,19.83
2018-12-20T08:14:47.636Z,19.30
2018-12-20T08:17:14.844Z,21.37
2018-12-20T08:19:42.085Z,19.23
2018-12-20T08:22:09.329Z,16.87
2018-12-20T08:24:36.633Z,16.40
2018-12-20T08:27:03.850Z,24.80
2018-12-20T08:29:31.097Z,20.00
2018-12-20T08:31:58.310Z,20.80
2018-12-20T08:34:25.844Z,24.33
2018-12-20T08:36:53.067Z,17.57
2018-12-20T08:39:20.768Z,22.10
2018-12-20T08:41:49.712Z,21.70
2018-12-20T08:44:17.156Z,17.17
2018-12-20T08:46:44.441Z,18.00
2018-12-20T08:49:11.691Z,17.77
2018-12-20T08:51:39.047Z,15.50
2018-12-20T08:54:06.308Z,16.37
2018-12-20T08:56:33.515Z,17.07
2018-12-20T08:59:00.855Z,16.53
2018-12-20T09:01:28.712Z,15.77
2018-12-20T09:03:55.965Z,16.93
2018-12-20T09:06:23.287Z,18.57
2018-12-20T09:08:50.541Z,17.80
2018-12-20T09:11:17.761Z,16.80
2018-12-20T09:13:45.061Z,14.07
2018-12-20T09:16:12.459Z,15.77
2018-12-20T09:18:39.973Z,21.17
2018-12-20T09:21:07.233Z,15.77
2018-12-20T09:23:34.491Z,11.50
2018-12-20T09:26:01.851Z,16.67
2018-12-20T09:28:29.060Z,14.20
2018-12-20T09:30:56.317Z,12.00
2018-12-20T09:33:23.986Z,11.30
2018-12-20T09:35:51.627Z,13.70
2018-12-20T09:38:19.025Z,10.70
2018-12-20T09:40:47.653Z,10.43
2018-12-20T09:43:14.849Z,10.00
2018-12-20T09:45:42.103Z,10.63
2018-12-20T09:48:09.322Z,10.90
2018-12-20T09:50:36.634Z,7.60
2018-12-20T09:53:04.729Z,6.87
2018-12-20T09:55:31.951Z,9.50
2018-12-20T09:57:59.205Z,7.77
2018-12-20T10:00:26.567Z,5.97
2018-12-20T10:02:53.852Z,6.73
2018-12-20T10:05:21.090Z,9.33
2018-12-20T10:07:48.421Z,7.90
2018-12-20T10:10:15.958Z,7.17
2018-12-20T10:12:43.196Z,7.03
2018-12-20T10:15:10.570Z,6.60
2018-12-20T10:17:37.797Z,9.10
2018-12-20T10:20:08.005Z,9.10
2018-12-20T10:22:35.232Z,6.70
2018-12-20T10:25:02.564Z,7.47
2018-12-20T10:27:31.476Z,8.80
2018-12-20T10:29:59.071Z,8.77
2018-12-20T10:32:26.488Z,6.53
2018-12-20T10:34:53.704Z,5.77
2018-12-20T10:37:20.964Z,9.23
2018-12-20T10:39:48.234Z,6.97
2018-12-20T10:42:15.614Z,5.50
2018-12-20T10:44:42.858Z,5.77
2018-12-20T10:47:16.014Z,7.17
2018-12-20T10:49:43.257Z,6.77
2018-12-20T10:52:10.616Z,5.13
2018-12-20T10:54:37.850Z,8.53
2018-12-20T10:57:05.170Z,5.50
2018-12-20T10:59:32.549Z,6.97
2018-12-20T11:02:05.399Z,5.23
2018-12-20T11:04:38.317Z,6.70
2018-12-20T11:07:11.159Z,4.63
2018-12-20T11:09:44.217Z,4.43
2018-12-20T11:12:16.052Z,5.93
2018-12-20T11:14:43.323Z,4.73
2018-12-20T11:17:10.987Z,7.93
2018-12-20T11:19:40.331Z,3.60
2018-12-20T11:22:08.282Z,6.47
2018-12-20T11:24:36.187Z,9.60
2018-12-20T11:27:03.856Z,3.87
2018-12-20T11:29:32.190Z,7.70
2018-12-20T11:31:59.757Z,6.17
2018-12-20T11:34:28.545Z,6.10
2018-12-20T11:36:56.876Z,7.10
2018-12-20T11:39:24.152Z,5.83
2018-12-20T11:41:52.698Z,7.03
2018-12-20T11:44:20.623Z,7.60
2018-12-20T11:46:49.126Z,3.80
2018-12-20T11:49:16.489Z,6.30
2018-12-20T11:51:43.844Z,4.10
2018-12-20T11:54:11.074Z,5.47
2018-12-20T11:56:38.499Z,8.83
2018-12-20T11:59:05.740Z,5.40
2018-12-20T12:01:33.071Z,5.40
2018-12-20T12:04:01.312Z,4.43
2018-12-20T12:06:28.813Z,5.50
2018-12-20T12:08:56.451Z,4.57
2018-12-20T12:11:23.680Z,7.20
2018-12-20T12:13:55.815Z,5.73
2018-12-20T12:16:23.343Z,5.63
2018-12-20T12:18:59.010Z,4.40
2018-12-20T12:21:31.809Z,5.40
2018-12-20T12:24:01.282Z,11.23
2018-12-20T12:26:35.938Z,4.63
2018-12-20T12:30:13.910Z,6.07
2018-12-20T12:32:49.372Z,1.80
2018-12-20T12:35:21.131Z,2.40
2018-12-20T12:37:53.274Z,3.70
2018-12-20T12:43:17.584Z,3.90
2018-12-20T12:45:57.658Z,2.20
2018-12-20T12:48:38.145Z,1.40
2018-12-20T12:51:08.855Z,3.20
2018-12-20T12:53:46.804Z,2.93
2018-12-20T12:56:23.751Z,1.97
2018-12-20T12:58:53.739Z,2.90
2018-12-20T13:01:21.047Z,2.77
2018-12-20T13:03:48.313Z,2.33
2018-12-20T13:06:15.596Z,2.77
2018-12-20T13:08:44.113Z,2.10
2018-12-20T13:11:11.467Z,3.97
2018-12-20T13:13:38.749Z,4.53
2018-12-20T13:16:05.934Z,1.67
2018-12-20T13:18:33.148Z,4.17
2018-12-20T13:21:00.370Z,2.47
2018-12-20T13:23:27.629Z,2.47
2018-12-20T13:25:54.851Z,3.13
2018-12-20T13:28:22.104Z,4.90
2018-12-20T13:30:49.505Z,1.00
2018-12-20T13:33:16.857Z,2.37
2018-12-20T13:35:44.150Z,5.57
2018-12-20T13:38:11.361Z,2.27
2018-12-20T13:40:38.611Z,8.17
2018-12-20T13:43:05.873Z,1.57
2018-12-20T13:45:33.126Z,2.33
2018-12-20T13:48:00.409Z,1.37
2018-12-20T13:50:27.837Z,2.00
2018-12-20T13:52:55.089Z,1.53
2018-12-20T13:55:22.332Z,3.93
2018-12-20T13:57:49.670Z,2.63
2018-12-20T14:00:17.055Z,3.63
2018-12-20T14:02:44.541Z,2.93
2018-12-20T14:05:11.950Z,2.40
2018-12-20T14:07:39.510Z,3.63
2018-12-20T14:10:08.386Z,2.70
2018-12-20T14:12:35.873Z,6.50
2018-12-20T14:15:03.508Z,2.90
2018-12-20T14:17:30.758Z,2.33
2018-12-20T14:19:58.018Z,1.83
2018-12-20T14:22:25.318Z,2.40
2018-12-20T14:24:52.549Z,3.47
2018-12-20T14:27:19.814Z,5.13
2018-12-20T14:29:47.197Z,5.70
2018-12-20T14:34:55.017Z,4.20
2018-12-20T14:37:22.230Z,7.17
2018-12-20T14:39:49.474Z,5.70
2018-12-20T14:42:16.778Z,6.17
2018-12-20T14:44:44.024Z,3.60
2018-12-20T14:47:11.234Z,4.13
2018-12-20T14:49:38.549Z,4.77
2018-12-20T14:52:05.796Z,5.10
2018-12-20T14:54:33.004Z,4.70
2018-12-20T14:57:00.229Z,6.00
2018-12-20T14:59:27.480Z,7.33
2018-12-20T15:01:54.759Z,5.13
2018-12-20T15:04:22.677Z,3.10
2018-12-20T15:06:49.917Z,3.10
2018-12-20T15:09:17.147Z,4.20
2018-12-20T15:11:44.407Z,7.10
2018-12-20T15:14:11.726Z,4.53
2018-12-20T15:16:39.114Z,5.57
2018-12-20T15:19:06.350Z,5.57
2018-12-20T15:21:33.573Z,6.40
2018-12-20T15:24:00.902Z,7.17
2018-12-20T15:26:28.141Z,5.00
2018-12-20T15:28:55.588Z,4.33
2018-12-20T15:31:22.958Z,5.40
2018-12-20T15:33:50.177Z,4.10
2018-12-20T15:36:17.581Z,5.87
2018-12-20T15:38:46.313Z,3.60
2018-12-20T15:41:16.060Z,3.70
2018-12-20T15:43:43.349Z,6.60
2018-12-20T15:46:10.633Z,3.97
2018-12-20T15:48:37.885Z,5.67
2018-12-20T15:51:05.137Z,4.67
2018-12-20T15:53:32.385Z,4.33
2018-12-20T15:55:59.766Z,6.23
2018-12-20T15:58:26.984Z,3.93
2018-12-20T16:00:54.271Z,5.93
2018-12-20T16:03:21.507Z,5.97
2018-12-20T16:05:48.725Z,4.83
2018-12-20T16:08:16.004Z,4.00
2018-12-20T16:10:43.209Z,7.73
2018-12-20T16:13:10.441Z,6.03
2018-12-20T16:15:37.649Z,7.80
2018-12-20T16:18:05.458Z,3.93
2018-12-20T16:20:32.870Z,4.30
2018-12-20T16:23:00.129Z,8.47
2018-12-20T16:25:27.421Z,8.63
2018-12-20T16:27:54.644Z,7.80
2018-12-20T16:30:21.897Z,3.53
2018-12-20T16:32:49.181Z,8.07
2018-12-20T16:35:16.422Z,4.43
2018-12-20T16:37:43.676Z,5.27
2018-12-20T16:40:10.887Z,2.50
2018-12-20T16:42:38.164Z,5.13
2018-12-20T16:45:06.245Z,3.80
2018-12-20T16:47:34.335Z,3.83
2018-12-20T16:50:01.604Z,3.60
2018-12-20T16:52:28.864Z,2.43
2018-12-20T16:54:56.077Z,2.90
2018-12-20T16:57:23.434Z,4.37
2018-12-20T16:59:50.754Z,5.73
2018-12-20T17:02:18.068Z,3.60
2018-12-20T17:04:45.284Z,4.57
2018-12-20T17:07:12.841Z,6.40
2018-12-20T17:09:40.061Z,6.30
2018-12-20T17:12:07.260Z,3.17
2018-12-20T17:14:34.517Z,4.80
2018-12-20T17:17:01.758Z,3.70
2018-12-20T17:19:29.415Z,8.67
2018-12-20T17:21:56.666Z,4.47
2018-12-20T17:24:23.921Z,3.73
2018-12-20T17:26:51.145Z,3.37
2018-12-20T17:29:18.382Z,7.00
2018-12-20T17:31:45.733Z,4.77
2018-12-20T17:34:12.973Z,12.50
2018-12-20T17:36:40.290Z,7.80
2018-12-20T17:39:07.953Z,4.50
2018-12-20T17:41:35.430Z,6.67
2018-12-20T17:44:03.288Z,3.97
2018-12-20T17:46:30.741Z,5.40
2018-12-20T17:48:57.976Z,11.20
2018-12-20T17:51:25.217Z,6.77
2018-12-20T17:53:52.454Z,9.30
2018-12-20T17:56:19.737Z,4.17
2018-12-20T17:58:47.117Z,7.37
2018-12-20T18:01:14.353Z,5.80
2018-12-20T18:03:41.619Z,9.37
2018-12-20T18:06:08.839Z,10.33
2018-12-20T18:08:36.242Z,9.40
2018-12-20T18:11:04.175Z,8.97
2018-12-20T18:13:32.426Z,5.77
2018-12-20T18:16:00.936Z,7.70
2018-12-20T18:18:28.903Z,7.70
2018-12-20T18:20:57.385Z,6.87
2018-12-20T18:23:25.916Z,7.90
2018-12-20T18:25:54.833Z,11.30
2018-12-20T18:28:23.606Z,9.20
2018-12-20T18:30:52.180Z,13.17
2018-12-20T18:33:20.405Z,11.20
2018-12-20T18:35:47.685Z,15.73
2018-12-20T18:38:14.960Z,9.13
2018-12-20T18:40:45.233Z,9.00
2018-12-20T18:43:12.467Z,11.80
2018-12-20T18:45:39.778Z,8.43
2018-12-20T18:48:07.000Z,10.83
2018-12-20T18:50:34.241Z,9.87
2018-12-20T18:53:01.455Z,8.70
2018-12-20T18:55:28.730Z,10.37
2018-12-20T18:57:55.943Z,11.97
2018-12-20T19:00:23.311Z,11.13
2018-12-20T19:02:50.536Z,14.63
2018-12-20T19:05:17.820Z,13.10
2018-12-20T19:07:45.045Z,7.13
2018-12-20T19:10:12.315Z,13.63
2018-12-20T19:12:39.534Z,18.53
2018-12-20T19:15:08.341Z,14.30
2018-12-20T19:17:35.552Z,15.90
2018-12-20T19:20:03.216Z,10.37
2018-12-20T19:22:30.641Z,12.83
2018-12-20T19:24:57.986Z,20.03
2018-12-20T19:27:25.235Z,10.50
2018-12-20T19:29:52.471Z,33.60
2018-12-20T19:32:19.742Z,7.97
2018-12-20T19:34:47.524Z,11.67
2018-12-20T19:37:14.902Z,13.93
2018-12-20T19:39:42.150Z,10.63
2018-12-20T19:42:14.083Z,10.30
2018-12-20T19:44:41.319Z,13.63
2018-12-20T19:47:08.537Z,15.50
2018-12-20T19:49:35.789Z,7.10
2018-12-20T19:52:03.042Z,9.50
2018-12-20T19:54:30.453Z,12.73
2018-12-20T19:57:02.957Z,17.10
2018-12-20T19:59:38.485Z,11.83
2018-12-20T20:02:04.548Z,9.37
2018-12-20T20:04:28.912Z,10.57
2018-12-20T20:06:56.162Z,14.07
2018-12-20T20:09:23.370Z,13.10
2018-12-20T20:11:50.628Z,13.53
2018-12-20T20:14:17.835Z,13.60
2018-12-20T20:16:50.622Z,14.23
2018-12-20T20:19:14.367Z,22.33
2018-12-20T20:21:41.615Z,16.37
2018-12-20T20:24:08.840Z,19.70
2018-12-20T20:26:37.993Z,25.17
2018-12-20T20:29:05.537Z,15.70
2018-12-20T20:31:32.797Z,13.47
2018-12-20T20:34:00.032Z,18.63
2018-12-20T20:36:27.265Z,13.73
2018-12-20T20:39:01.764Z,12.43
2018-12-20T20:41:23.850Z,12.90
2018-12-20T20:43:51.099Z,15.20
2018-12-20T20:46:18.326Z,13.90
2018-12-20T20:48:45.533Z,17.90
2018-12-20T20:51:12.828Z,14.77
2018-12-20T20:53:40.192Z,14.53
2018-12-20T20:56:07.453Z,13.83
2018-12-20T20:58:34.654Z,17.20
2018-12-20T21:01:02.269Z,12.87
2018-12-20T21:03:29.529Z,13.47
2018-12-20T21:05:56.782Z,13.53
2018-12-20T21:08:24.020Z,15.23
2018-12-20T21:10:51.261Z,13.20
2018-12-20T21:13:18.478Z,10.90
2018-12-20T21:15:45.688Z,12.83
2018-12-20T21:18:12.921Z,11.27
2018-12-20T21:20:40.117Z,15.80
2018-12-20T21:23:07.365Z,15.20
2018-12-20T21:25:36.376Z,13.73
2018-12-20T21:28:04.273Z,11.67
2018-12-20T21:30:33.226Z,11.73
2018-12-20T21:33:01.309Z,12.90
2018-12-20T21:35:28.984Z,15.10
2018-12-20T21:37:57.648Z,9.90
2018-12-20T21:40:25.848Z,10.90
2018-12-20T21:42:53.137Z,9.20
2018-12-20T21:45:20.388Z,9.57
2018-12-20T21:47:47.608Z,11.37
2018-12-20T21:50:14.856Z,16.07
2018-12-20T21:52:42.114Z,9.60
2018-12-20T21:55:09.915Z,11.00
2018-12-20T21:57:37.190Z,12.23
2018-12-20T22:00:05.464Z,9.70
2018-12-20T22:02:32.806Z,13.00
2018-12-20T22:05:00.081Z,13.20
2018-12-20T22:07:27.311Z,12.17
2018-12-20T22:09:54.516Z,14.90
2018-12-20T22:12:21.748Z,10.93
2018-12-20T22:14:48.986Z,9.00
2018-12-20T22:17:16.233Z,11.33
2018-12-20T22:19:43.503Z,10.03
2018-12-20T22:22:10.727Z,11.57
2018-12-20T22:24:37.998Z,12.20
2018-12-20T22:27:05.240Z,15.43
2018-12-20T22:29:32.469Z,15.20
2018-12-20T22:31:59.689Z,15.33
2018-12-20T22:34:26.921Z,15.90
2018-12-20T22:36:54.142Z,20.23
2018-12-20T22:39:21.412Z,16.00
2018-12-20T22:41:59.610Z,15.43
2018-12-20T22:44:30.220Z,16.20
2018-12-20T22:47:00.451Z,15.67
2018-12-20T22:49:29.264Z,17.63
2018-12-20T22:52:02.860Z,9.40
2018-12-20T22:54:32.062Z,11.30
2018-12-20T22:57:00.635Z,11.70
2018-12-20T22:59:29.679Z,13.33
2018-12-20T23:01:58.748Z,10.90
2018-12-20T23:04:28.100Z,11.73
2018-12-20T23:06:55.319Z,13.07
2018-12-20T23:09:22.571Z,9.77
2018-12-20T23:11:49.920Z,13.30
2018-12-20T23:14:17.157Z,11.27
2018-12-20T23:16:44.358Z,15.47
2018-12-20T23:19:11.607Z,11.83
2018-12-20T23:21:38.869Z,12.90
2018-12-20T23:24:06.114Z,12.73
2018-12-20T23:26:33.459Z,14.57
2018-12-20T23:29:00.705Z,13.07
2018-12-20T23:31:27.930Z,12.50
2018-12-20T23:33:55.132Z,8.97
2018-12-20T23:36:22.398Z,22.23
2018-12-20T23:38:49.900Z,15.67
2018-12-20T23:41:17.535Z,13.57
2018-12-20T23:43:44.762Z,9.73
2018-12-20T23:46:12.001Z,15.53
2018-12-20T23:48:39.193Z,10.20
2018-12-20T23:51:13.572Z,9.13
2018-12-20T23:53:36.804Z,13.10
2018-12-20T23:56:04.249Z,10.37
2018-12-20T23:58:31.441Z,10.03
